Flight Track Log - Related Links

Times and Time Zones

All times are in EDT time to prevent confusion due to time zone crossing. See the N5FT flight status page for this flight to view local times or setup timezone preferences in your user account.

Time Position Orientation Groundspeed Altitude Reporting Facility
EDT Latitude Longitude Course Direction KTS MPH feet Rate Location/Type
Wed 04:07:26 PM 29.6394 -95.2886 225° Southwest 93 107 600  Level Houston Center
Wed 04:08:27 PM 29.6206 -95.3100 225° Southwest 95 109 1,400 661 Climbing Houston Center
Wed 04:09:15 PM 29.6086 -95.3256 229° Southwest 95 109 1,800 627 Climbing Houston Center
Wed 04:09:34 PM 29.6000 -95.3367 228° Southwest 98 113 2,100 677 Climbing Houston Center
Wed 04:10:17 PM 29.5914 -95.3494 232° Southwest 96 110 2,500 774 Climbing Houston Center
Wed 04:10:36 PM 29.5831 -95.3603 229° Southwest 95 109 2,900 476 Climbing Houston Center
Wed 04:11:20 PM 29.5686 -95.3792 229° Southwest 100 115 3,000 197 Climbing Houston Center
Wed 04:11:37 PM 29.5589 -95.3919 229° Southwest 145 167 3,100  Climbing Houston Center
Wed 04:12:22 PM 29.5417 -95.4144 229° Southwest 130 150 3,000  Descending Houston Center
Wed 04:12:38 PM 29.5325 -95.4264 229° Southwest 148 170 3,100  Climbing Houston Center
Wed 04:13:24 PM 29.5208 -95.4536 244° Southwest 149 171 3,000  Descending Houston Center
Wed 04:13:39 PM 29.5297 -95.4653 311° West 149 171 3,100  Climbing Houston Center
Wed 04:14:26 PM 29.5517 -95.4869 319° Northwest 156 180 3,000 -55 Descending Houston Center
Wed 04:15:28 PM 29.5844 -95.5203 319° Northwest 156 180 3,000  Level Houston Center
Wed 04:16:30 PM 29.6203 -95.5611 315° West 154 177 3,000  Level Houston Center
Wed 04:17:32 PM 29.6531 -95.5878 325° Northwest 148 170 3,000  Level Houston Center
Wed 04:18:35 PM 29.6933 -95.5992 346° North 152 175 3,000  Level Houston Center
Wed 04:19:37 PM 29.7339 -95.6086 349° North 149 171 3,000  Level Houston Center
Wed 04:20:39 PM 29.7733 -95.6189 347° North 147 169 3,000  Level Houston Center
Wed 04:21:41 PM 29.8144 -95.6292 348° North 149 171 3,000 435 Level Houston Center
Wed 04:22:43 PM 29.8581 -95.6411 347° North 137 158 3,900 484 Climbing Houston Center
Wed 04:23:45 PM 29.8956 -95.6508 347° North 135 155 4,000 48 Climbing Houston Center
Wed 04:24:47 PM 29.9394 -95.6608 349° North 154 177 4,000  Level Houston Center
Wed 04:25:50 PM 29.9836 -95.6717 348° North 160 184 4,000  Level Houston Center
Wed 04:26:52 PM 30.0258 -95.6833 347° North 157 181 4,000 48 Level Houston Center
Wed 04:27:56 PM 30.0753 -95.6944 349° North 160 184 4,100 435 Climbing Houston Center
Wed 04:28:56 PM 30.1144 -95.7047 347° North 142 163 4,900 443 Climbing Houston Center
Wed 04:29:58 PM 30.1525 -95.7158 346° North 139 160 5,000 98 Climbing Houston Center
Wed 04:30:59 PM 30.1978 -95.7283 347° North 158 182 5,100 49 Climbing Houston Center
Wed 04:32:00 PM 30.2386 -95.7381 348° North 158 182 5,100  Level Houston Center
Wed 04:33:01 PM 30.2858 -95.7494 348° North 159 183 5,100 195 Level Houston Center
Wed 04:34:03 PM 30.3267 -95.7592 348° North 138 159 5,500 439 Climbing Houston Center
Wed 04:35:04 PM 30.3631 -95.7694 346° North 136 157 6,000 469 Climbing Houston Center
Wed 04:36:11 PM 30.4025 -95.7806 346° North 135 155 6,500 541 Climbing Houston Center
Wed 04:37:06 PM 30.4383 -95.7897 348° North 135 155 7,100 569 Climbing Houston Center
Wed 04:38:07 PM 30.4728 -95.7978 349° North 131 151 7,600 458 Climbing Houston Center
Wed 04:39:17 PM 30.5111 -95.8067 349° North 132 152 8,100 244 Climbing Houston Center
Wed 04:40:10 PM 30.5500 -95.8178 346° North 153 176 8,100  Level Houston Center
Wed 04:41:11 PM 30.5950 -95.8294 347° North 157 181 8,100  Level Houston Center
Wed 04:42:24 PM 30.6450 -95.8406 349° North 157 181 8,100  Level Houston Center
Wed 04:43:14 PM 30.6808 -95.8511 346° North 155 178 8,100  Level Houston Center
Wed 04:44:28 PM 30.7283 -95.8628 348° North 152 175 8,100  Level Houston Center
Wed 04:45:30 PM 30.7711 -95.8742 347° North 156 180 8,100  Level Houston Center
Wed 04:46:32 PM 30.8131 -95.8861 346° North 156 180 8,100  Level Houston Center
Wed 04:47:34 PM 30.8656 -95.8992 348° North 158 182 8,100  Level Houston Center
Wed 04:48:36 PM 30.9075 -95.9106 347° North 155 178 8,100  Level Houston Center
Wed 04:49:38 PM 30.9500 -95.9208 348° North 155 178 8,100  Level Houston Center
Wed 04:50:41 PM 30.9911 -95.9333 345° North 154 177 8,100  Level Houston Center
Wed 04:51:43 PM 31.0336 -95.9439 348° North 154 177 8,100  Level Houston Center
Wed 04:52:45 PM 31.0758 -95.9547 348° North 154 177 8,100  Level Houston Center
Wed 04:53:47 PM 31.1256 -95.9675 348° North 152 175 8,100  Level Houston Center
Wed 04:54:49 PM 31.1686 -95.9764 350° North 155 178 8,100  Level Houston Center
Wed 04:55:51 PM 31.2106 -95.9875 347° North 154 177 8,100  Level Houston Center
Wed 04:56:53 PM 31.2528 -95.9964 350° North 154 177 8,100 -48 Level Houston Center
Wed 04:57:55 PM 31.2964 -96.0064 349° North 159 183 8,000 -48 Descending Houston Center
Wed 04:58:57 PM 31.3386 -96.0175 347° North 156 180 8,000  Level Houston Center
Wed 05:00:00 PM 31.3892 -96.0286 349° North 154 177 8,000  Level Houston Center
Wed 05:01:02 PM 31.4314 -96.0386 349° North 154 177 8,000  Level Houston Center
Wed 05:02:04 PM 31.4744 -96.0489 348° North 157 181 8,000  Level Houston Center
Wed 05:03:06 PM 31.5172 -96.0578 350° North 156 180 8,000  Level Houston Center
Wed 05:04:08 PM 31.5594 -96.0686 348° North 156 180 8,000  Level Houston Center
Wed 05:05:10 PM 31.6011 -96.0781 349° North 153 176 8,000  Level Houston Center
Wed 05:05:45 PM 31.6344 -96.0883 345° North 153 176 8,000  Level Fort Worth Center
Wed 05:06:45 PM 31.6742 -96.0978 349° North 153 176 8,000  Level Fort Worth Center
Wed 05:07:45 PM 31.7158 -96.1067 350° North 153 176 8,000 -50 Level Fort Worth Center
Wed 05:08:45 PM 31.7494 -96.1089 357° North 141 162 7,900 -300 Descending Fort Worth Center
Wed 05:09:45 PM 31.8039 -96.1275 344° North 169 194 7,400 -650 Descending Fort Worth Center
Wed 05:10:45 PM 31.8500 -96.1417 345° North 162 186 6,600 -650 Descending Fort Worth Center
Wed 05:11:45 PM 31.8981 -96.1531 349° North 162 186 6,100 -300 Descending Fort Worth Center
Wed 05:12:45 PM 31.9442 -96.1622 350° North 169 194 6,000 -50 Descending Fort Worth Center
Wed 05:13:45 PM 31.9817 -96.1717 348° North 169 194 6,000  Level Fort Worth Center
Wed 05:14:45 PM 32.0278 -96.1833 348° North 162 186 6,000  Level Fort Worth Center
Wed 05:15:45 PM 32.0758 -96.1925 351° North 162 186 6,000  Level Fort Worth Center
Wed 05:16:45 PM 32.1158 -96.2067 343° North 162 186 6,000  Level Fort Worth Center
Wed 05:17:45 PM 32.1658 -96.2158 351° North 162 186 6,000  Level Fort Worth Center
Wed 05:18:45 PM 32.2100 -96.2300 345° North 167 192 6,000 -200 Level Fort Worth Center
Wed 05:19:45 PM 32.2519 -96.2564 332° Northwest 167 192 5,600 -350 Descending Fort Worth Center
Wed 05:20:45 PM 32.2981 -96.2853 332° Northwest 172 198 5,300 -300 Descending Fort Worth Center
Wed 05:21:45 PM 32.3358 -96.3094 332° Northwest 172 198 5,000 -350 Descending Fort Worth Center
Wed 05:22:45 PM 32.3842 -96.3383 333° Northwest 172 198 4,600 -400 Descending Fort Worth Center
Wed 05:23:45 PM 32.4239 -96.3575 338° Northwest 172 198 4,200 -500 Descending Fort Worth Center
Wed 05:24:45 PM 32.4700 -96.3842 334° Northwest 177 204 3,600 -450 Descending Fort Worth Center
Wed 05:25:45 PM 32.5058 -96.4033 336° Northwest 172 198 3,300 -300 Descending Fort Worth Center
Wed 05:26:45 PM 32.5478 -96.4250 336° Northwest 149 171 3,000 -100 Descending Fort Worth Center
Wed 05:27:45 PM 32.5833 -96.4419 338° Northwest 149 171 3,100 100 Climbing Fort Worth Center
Wed 05:37:00 PM 32.6296 -96.4822 324° Northwest  Level FlightAware Approximate
Wed 05:44:00 PM 32.7333 -96.5167 337° Northwest  Level FlightAware Approximate
Wed 05:45:00 PM 32.7470 -96.5304 337° Northwest  Level Estimated
Wed 05:46:00 PM 32.7470 -96.5304 337° Northwest  Level Estimated
Wed 05:47:00 PM 32.7470 -96.5304 337° Northwest  Level Estimated
Wed 05:48:00 PM 32.7470 -96.5304 337° Northwest  Level Estimated
Wed 05:49:00 PM 32.7470 -96.5304 337° Northwest  Level Estimated
Wed 05:50:00 PM 32.7470 -96.5304 337° Northwest  Level Estimated
Wed 05:51:00 PM 32.7470 -96.5304 337° Northwest  Level Estimated

Login

Don't have an account? Register now (free) for customized features, flight alerts, and more!